SBPASBSM

Guest
Details From SBPA - Salgado Filho
To SBSM - Santa Maria
Flight Number -
Tags Generated
Created
Modified
Stats Distance 132 nm / 244 km
Max Altitude 0 ft / 0 m
Waypoints 2
Social Downloads 0
Likes 0
Share VATSIM

Download

Looking for another format? Having issues loading an existing format? Contact us
Advertisement - Login to hide

Notes

Generated

Route

SBPA SBSM

ID Type Via Altitude Latitude Longitude Leg Dist Tot Dist Heading (true) Name
O SBPA APT - 0 ft / 0 m -29.99414˚ -51.18327˚ - 0 nm - -
O SBSM APT - 0 ft / 0 m -29.72139˚ -53.68869˚ 131 nm 131 nm 277° / 278° -

Altitude Profile

Advertisement - Login to hide

SBPA

Details ICAO SBPA (POA)
Name Salgado Filho
Region Brazil
Timezone America/Sao_Paulo (UTC-3.0)
Stats Elevation 11 ft / 3 m (AMSL)
Location -29.994428° -51.171426°
Runways 1
Magnetic Variation 16.944° W

METAR

SBPA 202200Z 31006KT 9999 OVC022 13/12 Q1016

Decode

TAF

Not found

Departure Runways

ID Width Length Bearing (true) Bearing (mag) Surface Threshold Offset Overrun Length
11 138 ft / 42 m 7,487 ft / 2,282 m 91.60° 108.54° Asphalt 0 ft / 0 m 230 ft / 70 m
29 138 ft / 42 m 7,487 ft / 2,282 m 271.59° 288.53° Asphalt 0 ft / 0 m 197 ft / 60 m

SBSM

Details ICAO SBSM (RIA)
Name Santa Maria
Region Brazil
Timezone America/Sao_Paulo (UTC-3.0)
Stats Elevation 287 ft / 87 m (AMSL)
Location -29.712352° -53.689105°
Runways 2
Magnetic Variation 15.346° W

METAR

SBSM 202100Z 32007KT 280V360 9999 FEW025 BKN040 14/10 Q1017

Decode

TAF

TAF SBSM 201400Z 2018/2106 28011KT 9999 SCT035 TX16/2018Z TN09/2105Z BECMG 2102/2104 31005KT CAVOK RMK PDV

Decode

Destination Runways

ID Width Length Bearing (true) Bearing (mag) Surface Threshold Offset Overrun Length
02 100 ft / 30 m 5,806 ft / 1,770 m 2.56° 17.91° Asphalt 0 ft / 0 m 185 ft / 56 m
11 148 ft / 45 m 8,836 ft / 2,693 m 93.44° 108.79° Concrete 0 ft / 0 m 1,140 ft / 347 m
20 100 ft / 30 m 5,806 ft / 1,770 m 182.56° 197.91° Asphalt 1,170 ft / 357 m 0 ft / 0 m
29 148 ft / 45 m 8,836 ft / 2,693 m 273.43° 288.78° Concrete 0 ft / 0 m 1,140 ft / 347 m

Popular Alternatives